sensor_id;sensor_type;location;lat;lon;timestamp;temperature;humidity
45283;DHT22;31023;44.994;1.796;2022-07-10T00:00:17;20.80;72.10
45283;DHT22;31023;44.994;1.796;2022-07-10T00:02:46;20.80;72.70
45283;DHT22;31023;44.994;1.796;2022-07-10T00:05:11;20.70;72.80
45283;DHT22;31023;44.994;1.796;2022-07-10T00:07:37;20.60;73.20
45283;DHT22;31023;44.994;1.796;2022-07-10T00:10:03;20.50;73.70
45283;DHT22;31023;44.994;1.796;2022-07-10T00:12:29;20.50;74.00
45283;DHT22;31023;44.994;1.796;2022-07-10T00:14:55;20.50;74.10
45283;DHT22;31023;44.994;1.796;2022-07-10T00:17:20;20.50;74.20
45283;DHT22;31023;44.994;1.796;2022-07-10T00:19:46;20.40;74.60
45283;DHT22;31023;44.994;1.796;2022-07-10T00:22:11;20.40;74.90
45283;DHT22;31023;44.994;1.796;2022-07-10T00:24:37;20.30;75.40
45283;DHT22;31023;44.994;1.796;2022-07-10T00:27:02;20.30;75.60
45283;DHT22;31023;44.994;1.796;2022-07-10T00:29:28;20.20;76.10
45283;DHT22;31023;44.994;1.796;2022-07-10T00:31:53;20.20;76.50
45283;DHT22;31023;44.994;1.796;2022-07-10T00:34:19;20.10;76.80
45283;DHT22;31023;44.994;1.796;2022-07-10T00:36:44;20.10;77.00
45283;DHT22;31023;44.994;1.796;2022-07-10T00:39:10;20.10;77.30
45283;DHT22;31023;44.994;1.796;2022-07-10T00:41:35;20.00;77.80
45283;DHT22;31023;44.994;1.796;2022-07-10T00:44:02;20.00;78.00
45283;DHT22;31023;44.994;1.796;2022-07-10T00:46:28;19.90;78.30
45283;DHT22;31023;44.994;1.796;2022-07-10T00:48:54;19.80;78.70
45283;DHT22;31023;44.994;1.796;2022-07-10T00:51:21;19.80;79.30
45283;DHT22;31023;44.994;1.796;2022-07-10T00:53:47;19.80;79.20
45283;DHT22;31023;44.994;1.796;2022-07-10T00:56:17;19.90;79.30
45283;DHT22;31023;44.994;1.796;2022-07-10T00:58:43;19.80;79.40
45283;DHT22;31023;44.994;1.796;2022-07-10T01:01:09;19.80;80.10
45283;DHT22;31023;44.994;1.796;2022-07-10T01:03:35;19.70;80.40
45283;DHT22;31023;44.994;1.796;2022-07-10T01:06:00;19.60;80.60
45283;DHT22;31023;44.994;1.796;2022-07-10T01:08:26;19.70;80.40
45283;DHT22;31023;44.994;1.796;2022-07-10T01:10:52;19.50;81.50
45283;DHT22;31023;44.994;1.796;2022-07-10T01:13:18;19.40;82.00
45283;DHT22;31023;44.994;1.796;2022-07-10T01:15:44;19.40;82.50
45283;DHT22;31023;44.994;1.796;2022-07-10T01:18:10;19.30;83.50
45283;DHT22;31023;44.994;1.796;2022-07-10T01:20:35;19.10;84.60
45283;DHT22;31023;44.994;1.796;2022-07-10T01:23:01;19.30;83.30
45283;DHT22;31023;44.994;1.796;2022-07-10T01:25:27;19.20;84.10
45283;DHT22;31023;44.994;1.796;2022-07-10T01:27:53;19.20;84.60
45283;DHT22;31023;44.994;1.796;2022-07-10T01:30:19;19.10;85.30
45283;DHT22;31023;44.994;1.796;2022-07-10T01:32:46;19.10;86.10
45283;DHT22;31023;44.994;1.796;2022-07-10T01:35:12;19.10;85.90
45283;DHT22;31023;44.994;1.796;2022-07-10T01:37:38;19.00;86.80
45283;DHT22;31023;44.994;1.796;2022-07-10T01:40:04;18.90;88.00
45283;DHT22;31023;44.994;1.796;2022-07-10T01:42:30;18.90;88.40
45283;DHT22;31023;44.994;1.796;2022-07-10T01:44:55;18.90;88.50
45283;DHT22;31023;44.994;1.796;2022-07-10T01:47:21;18.80;89.70
45283;DHT22;31023;44.994;1.796;2022-07-10T01:49:52;18.70;90.10
45283;DHT22;31023;44.994;1.796;2022-07-10T01:52:19;18.60;90.80
45283;DHT22;31023;44.994;1.796;2022-07-10T01:54:44;18.60;91.00
45283;DHT22;31023;44.994;1.796;2022-07-10T01:57:10;18.70;91.20
45283;DHT22;31023;44.994;1.796;2022-07-10T01:59:35;18.60;91.20
45283;DHT22;31023;44.994;1.796;2022-07-10T02:02:01;18.60;91.20
45283;DHT22;31023;44.994;1.796;2022-07-10T02:04:27;18.60;91.10
45283;DHT22;31023;44.994;1.796;2022-07-10T02:07:14;18.70;90.90
45283;DHT22;31023;44.994;1.796;2022-07-10T02:09:40;18.70;90.30
45283;DHT22;31023;44.994;1.796;2022-07-10T02:12:06;18.70;90.40
45283;DHT22;31023;44.994;1.796;2022-07-10T02:14:32;18.80;90.10
45283;DHT22;31023;44.994;1.796;2022-07-10T02:16:57;18.80;90.30
45283;DHT22;31023;44.994;1.796;2022-07-10T02:19:23;18.80;90.20
45283;DHT22;31023;44.994;1.796;2022-07-10T02:21:49;18.80;90.30
45283;DHT22;31023;44.994;1.796;2022-07-10T02:24:14;18.70;90.20
45283;DHT22;31023;44.994;1.796;2022-07-10T02:26:40;18.70;90.40
45283;DHT22;31023;44.994;1.796;2022-07-10T02:29:06;18.50;91.00
45283;DHT22;31023;44.994;1.796;2022-07-10T02:31:31;18.60;91.10
45283;DHT22;31023;44.994;1.796;2022-07-10T02:34:00;18.60;90.90
45283;DHT22;31023;44.994;1.796;2022-07-10T02:36:25;18.40;91.50
45283;DHT22;31023;44.994;1.796;2022-07-10T02:38:51;18.50;91.60
45283;DHT22;31023;44.994;1.796;2022-07-10T02:41:17;18.30;92.30
45283;DHT22;31023;44.994;1.796;2022-07-10T02:43:42;18.40;92.10
45283;DHT22;31023;44.994;1.796;2022-07-10T02:46:08;18.20;93.10
45283;DHT22;31023;44.994;1.796;2022-07-10T02:48:33;18.10;94.20
45283;DHT22;31023;44.994;1.796;2022-07-10T02:50:59;18.20;93.80
45283;DHT22;31023;44.994;1.796;2022-07-10T02:53:24;18.10;94.10
45283;DHT22;31023;44.994;1.796;2022-07-10T02:55:50;18.20;93.90
45283;DHT22;31023;44.994;1.796;2022-07-10T02:58:16;18.10;94.60
45283;DHT22;31023;44.994;1.796;2022-07-10T03:00:43;18.00;94.70
45283;DHT22;31023;44.994;1.796;2022-07-10T03:03:08;18.00;94.70
45283;DHT22;31023;44.994;1.796;2022-07-10T03:05:34;18.00;94.80
45283;DHT22;31023;44.994;1.796;2022-07-10T03:08:00;17.90;95.30
45283;DHT22;31023;44.994;1.796;2022-07-10T03:10:25;17.90;95.10
45283;DHT22;31023;44.994;1.796;2022-07-10T03:12:51;18.00;94.50
45283;DHT22;31023;44.994;1.796;2022-07-10T03:15:16;18.00;94.80
45283;DHT22;31023;44.994;1.796;2022-07-10T03:17:42;17.90;94.90
45283;DHT22;31023;44.994;1.796;2022-07-10T03:20:08;17.90;95.50
45283;DHT22;31023;44.994;1.796;2022-07-10T03:22:34;18.00;95.00
45283;DHT22;31023;44.994;1.796;2022-07-10T03:25:00;17.80;96.10
45283;DHT22;31023;44.994;1.796;2022-07-10T03:27:25;17.80;95.80
45283;DHT22;31023;44.994;1.796;2022-07-10T03:29:51;17.80;96.10
45283;DHT22;31023;44.994;1.796;2022-07-10T03:32:16;17.80;95.80
45283;DHT22;31023;44.994;1.796;2022-07-10T03:34:42;17.70;95.90
45283;DHT22;31023;44.994;1.796;2022-07-10T03:37:08;17.70;96.20
45283;DHT22;31023;44.994;1.796;2022-07-10T03:39:33;17.70;96.50
45283;DHT22;31023;44.994;1.796;2022-07-10T03:41:59;17.60;97.20
45283;DHT22;31023;44.994;1.796;2022-07-10T03:44:25;17.60;97.50
45283;DHT22;31023;44.994;1.796;2022-07-10T03:46:50;17.60;97.50
45283;DHT22;31023;44.994;1.796;2022-07-10T03:49:16;17.40;98.00
45283;DHT22;31023;44.994;1.796;2022-07-10T03:51:41;17.50;97.80
45283;DHT22;31023;44.994;1.796;2022-07-10T03:54:07;17.60;97.10
45283;DHT22;31023;44.994;1.796;2022-07-10T03:56:32;17.70;96.60
45283;DHT22;31023;44.994;1.796;2022-07-10T03:59:16;17.70;96.40
45283;DHT22;31023;44.994;1.796;2022-07-10T04:01:42;17.70;96.50
45283;DHT22;31023;44.994;1.796;2022-07-10T04:04:07;17.60;96.80
45283;DHT22;31023;44.994;1.796;2022-07-10T04:06:33;17.40;97.50
45283;DHT22;31023;44.994;1.796;2022-07-10T04:08:58;17.40;97.80
45283;DHT22;31023;44.994;1.796;2022-07-10T04:11:24;17.30;98.60
45283;DHT22;31023;44.994;1.796;2022-07-10T04:13:49;17.20;99.80
45283;DHT22;31023;44.994;1.796;2022-07-10T04:16:15;17.20;99.90
45283;DHT22;31023;44.994;1.796;2022-07-10T04:18:40;17.30;99.00
45283;DHT22;31023;44.994;1.796;2022-07-10T04:21:06;17.30;99.00
45283;DHT22;31023;44.994;1.796;2022-07-10T04:23:32;17.40;98.90
45283;DHT22;31023;44.994;1.796;2022-07-10T04:25:58;17.40;98.50
45283;DHT22;31023;44.994;1.796;2022-07-10T04:28:23;17.40;98.70
45283;DHT22;31023;44.994;1.796;2022-07-10T04:30:49;17.40;98.80
45283;DHT22;31023;44.994;1.796;2022-07-10T04:33:15;17.60;98.40
45283;DHT22;31023;44.994;1.796;2022-07-10T04:35:40;18.20;96.00
45283;DHT22;31023;44.994;1.796;2022-07-10T04:38:06;18.70;93.30
45283;DHT22;31023;44.994;1.796;2022-07-10T04:40:31;19.20;91.30
45283;DHT22;31023;44.994;1.796;2022-07-10T04:42:57;19.60;88.70
45283;DHT22;31023;44.994;1.796;2022-07-10T04:45:23;19.90;87.30
45283;DHT22;31023;44.994;1.796;2022-07-10T04:47:48;20.00;85.40
45283;DHT22;31023;44.994;1.796;2022-07-10T04:50:16;20.20;84.50
45283;DHT22;31023;44.994;1.796;2022-07-10T04:52:41;20.50;82.90
45283;DHT22;31023;44.994;1.796;2022-07-10T04:55:07;20.70;81.30
45283;DHT22;31023;44.994;1.796;2022-07-10T04:57:33;20.90;81.10
45283;DHT22;31023;44.994;1.796;2022-07-10T04:59:58;21.20;79.60
45283;DHT22;31023;44.994;1.796;2022-07-10T05:02:24;21.50;77.70
45283;DHT22;31023;44.994;1.796;2022-07-10T05:04:50;21.60;77.20
45283;DHT22;31023;44.994;1.796;2022-07-10T05:07:16;21.70;76.90
45283;DHT22;31023;44.994;1.796;2022-07-10T05:09:41;22.00;75.50
45283;DHT22;31023;44.994;1.796;2022-07-10T05:12:07;22.20;74.90
45283;DHT22;31023;44.994;1.796;2022-07-10T05:14:32;22.50;73.60
45283;DHT22;31023;44.994;1.796;2022-07-10T05:16:58;22.80;73.20
45283;DHT22;31023;44.994;1.796;2022-07-10T05:19:23;22.60;72.10
45283;DHT22;31023;44.994;1.796;2022-07-10T05:21:49;21.60;75.70
45283;DHT22;31023;44.994;1.796;2022-07-10T05:24:15;21.80;76.10
45283;DHT22;31023;44.994;1.796;2022-07-10T05:26:40;21.70;75.80
45283;DHT22;31023;44.994;1.796;2022-07-10T05:29:06;22.00;75.30
45283;DHT22;31023;44.994;1.796;2022-07-10T05:31:31;22.90;73.70
45283;DHT22;31023;44.994;1.796;2022-07-10T05:33:57;23.40;70.30
45283;DHT22;31023;44.994;1.796;2022-07-10T05:36:22;23.70;68.90
45283;DHT22;31023;44.994;1.796;2022-07-10T05:38:48;23.90;67.60
45283;DHT22;31023;44.994;1.796;2022-07-10T05:41:14;24.80;67.10
45283;DHT22;31023;44.994;1.796;2022-07-10T05:43:39;25.10;65.40
45283;DHT22;31023;44.994;1.796;2022-07-10T05:46:05;25.50;64.10
45283;DHT22;31023;44.994;1.796;2022-07-10T05:48:31;25.60;64.20
45283;DHT22;31023;44.994;1.796;2022-07-10T05:50:56;25.70;63.30
45283;DHT22;31023;44.994;1.796;2022-07-10T05:53:22;25.20;62.90
45283;DHT22;31023;44.994;1.796;2022-07-10T05:55:48;25.40;62.70
45283;DHT22;31023;44.994;1.796;2022-07-10T05:58:13;25.50;61.20
45283;DHT22;31023;44.994;1.796;2022-07-10T06:00:39;25.80;61.30
45283;DHT22;31023;44.994;1.796;2022-07-10T06:03:05;25.70;61.60
45283;DHT22;31023;44.994;1.796;2022-07-10T06:05:31;25.90;61.40
45283;DHT22;31023;44.994;1.796;2022-07-10T06:07:56;25.70;62.30
45283;DHT22;31023;44.994;1.796;2022-07-10T06:10:22;26.00;61.30
45283;DHT22;31023;44.994;1.796;2022-07-10T06:12:47;26.10;60.60
45283;DHT22;31023;44.994;1.796;2022-07-10T06:15:13;26.40;59.90
45283;DHT22;31023;44.994;1.796;2022-07-10T06:17:38;27.10;58.20
45283;DHT22;31023;44.994;1.796;2022-07-10T06:20:04;27.40;58.20
45283;DHT22;31023;44.994;1.796;2022-07-10T06:22:30;28.20;57.10
45283;DHT22;31023;44.994;1.796;2022-07-10T06:24:55;27.50;58.30
45283;DHT22;31023;44.994;1.796;2022-07-10T06:27:21;27.40;57.50
45283;DHT22;31023;44.994;1.796;2022-07-10T06:29:47;27.30;57.30
45283;DHT22;31023;44.994;1.796;2022-07-10T06:32:12;27.40;56.50
45283;DHT22;31023;44.994;1.796;2022-07-10T06:34:38;27.40;56.30
45283;DHT22;31023;44.994;1.796;2022-07-10T06:37:04;27.20;56.40
45283;DHT22;31023;44.994;1.796;2022-07-10T06:39:31;27.90;57.30
45283;DHT22;31023;44.994;1.796;2022-07-10T06:41:59;27.90;57.70
45283;DHT22;31023;44.994;1.796;2022-07-10T06:44:25;28.10;55.70
45283;DHT22;31023;44.994;1.796;2022-07-10T06:46:51;28.40;55.30
45283;DHT22;31023;44.994;1.796;2022-07-10T06:49:35;29.00;54.80
45283;DHT22;31023;44.994;1.796;2022-07-10T06:52:00;28.80;54.30
45283;DHT22;31023;44.994;1.796;2022-07-10T06:54:26;28.70;53.80
45283;DHT22;31023;44.994;1.796;2022-07-10T06:56:52;29.50;54.50
45283;DHT22;31023;44.994;1.796;2022-07-10T06:59:17;29.80;53.30
45283;DHT22;31023;44.994;1.796;2022-07-10T07:01:43;30.10;51.90
45283;DHT22;31023;44.994;1.796;2022-07-10T07:04:09;29.10;52.60
45283;DHT22;31023;44.994;1.796;2022-07-10T07:06:34;30.10;51.50
45283;DHT22;31023;44.994;1.796;2022-07-10T07:09:00;30.30;52.90
45283;DHT22;31023;44.994;1.796;2022-07-10T07:11:26;30.00;51.80
45283;DHT22;31023;44.994;1.796;2022-07-10T07:13:51;29.60;51.50
45283;DHT22;31023;44.994;1.796;2022-07-10T07:16:17;30.50;51.70
45283;DHT22;31023;44.994;1.796;2022-07-10T07:18:45;30.60;50.20
45283;DHT22;31023;44.994;1.796;2022-07-10T07:21:17;30.30;50.50
45283;DHT22;31023;44.994;1.796;2022-07-10T07:24:01;30.30;50.00
45283;DHT22;31023;44.994;1.796;2022-07-10T07:26:29;31.40;49.60
45283;DHT22;31023;44.994;1.796;2022-07-10T07:28:54;31.10;50.00
45283;DHT22;31023;44.994;1.796;2022-07-10T07:31:20;31.70;49.20
45283;DHT22;31023;44.994;1.796;2022-07-10T07:33:45;31.90;48.90
45283;DHT22;31023;44.994;1.796;2022-07-10T07:39:08;31.80;49.10
45283;DHT22;31023;44.994;1.796;2022-07-10T07:41:33;32.30;48.90
45283;DHT22;31023;44.994;1.796;2022-07-10T07:43:59;33.50;48.30
45283;DHT22;31023;44.994;1.796;2022-07-10T07:46:24;32.90;49.10
45283;DHT22;31023;44.994;1.796;2022-07-10T07:48:50;32.70;49.40
45283;DHT22;31023;44.994;1.796;2022-07-10T07:51:15;33.60;48.50
45283;DHT22;31023;44.994;1.796;2022-07-10T07:53:41;33.80;46.40
45283;DHT22;31023;44.994;1.796;2022-07-10T07:56:06;34.30;47.10
45283;DHT22;31023;44.994;1.796;2022-07-10T07:58:32;33.80;45.60
45283;DHT22;31023;44.994;1.796;2022-07-10T08:00:58;33.90;46.70
45283;DHT22;31023;44.994;1.796;2022-07-10T08:03:23;34.90;45.70
45283;DHT22;31023;44.994;1.796;2022-07-10T08:05:49;35.20;45.50
45283;DHT22;31023;44.994;1.796;2022-07-10T08:08:15;35.90;45.40
45283;DHT22;31023;44.994;1.796;2022-07-10T08:10:40;34.50;45.50
45283;DHT22;31023;44.994;1.796;2022-07-10T08:13:06;35.20;46.70
45283;DHT22;31023;44.994;1.796;2022-07-10T08:15:32;35.70;44.30
45283;DHT22;31023;44.994;1.796;2022-07-10T08:18:00;35.30;44.90
45283;DHT22;31023;44.994;1.796;2022-07-10T08:20:26;35.30;44.20
45283;DHT22;31023;44.994;1.796;2022-07-10T08:22:52;36.00;45.80
45283;DHT22;31023;44.994;1.796;2022-07-10T08:25:19;35.30;45.30
45283;DHT22;31023;44.994;1.796;2022-07-10T08:27:44;34.80;46.80
45283;DHT22;31023;44.994;1.796;2022-07-10T08:30:10;35.40;45.10
45283;DHT22;31023;44.994;1.796;2022-07-10T08:32:37;35.50;45.00
45283;DHT22;31023;44.994;1.796;2022-07-10T08:35:03;34.70;44.00
45283;DHT22;31023;44.994;1.796;2022-07-10T08:37:28;35.20;44.60
45283;DHT22;31023;44.994;1.796;2022-07-10T08:39:54;35.50;43.70
45283;DHT22;31023;44.994;1.796;2022-07-10T08:42:20;35.70;43.50
45283;DHT22;31023;44.994;1.796;2022-07-10T08:44:45;35.60;43.40
45283;DHT22;31023;44.994;1.796;2022-07-10T08:47:11;36.40;44.70
45283;DHT22;31023;44.994;1.796;2022-07-10T08:49:37;36.20;42.10
45283;DHT22;31023;44.994;1.796;2022-07-10T08:52:04;37.00;45.20
45283;DHT22;31023;44.994;1.796;2022-07-10T08:54:30;37.60;41.70
45283;DHT22;31023;44.994;1.796;2022-07-10T08:56:56;36.40;42.90
45283;DHT22;31023;44.994;1.796;2022-07-10T08:59:23;36.30;44.40
45283;DHT22;31023;44.994;1.796;2022-07-10T09:01:48;37.10;43.30
45283;DHT22;31023;44.994;1.796;2022-07-10T09:04:18;36.90;43.70
45283;DHT22;31023;44.994;1.796;2022-07-10T09:06:44;37.90;43.50
45283;DHT22;31023;44.994;1.796;2022-07-10T09:09:10;37.70;44.80
45283;DHT22;31023;44.994;1.796;2022-07-10T09:11:38;37.90;42.30
45283;DHT22;31023;44.994;1.796;2022-07-10T09:14:06;38.30;41.10
45283;DHT22;31023;44.994;1.796;2022-07-10T09:16:37;38.70;41.80
45283;DHT22;31023;44.994;1.796;2022-07-10T09:19:19;38.50;42.30
45283;DHT22;31023;44.994;1.796;2022-07-10T09:21:46;38.60;41.90
45283;DHT22;31023;44.994;1.796;2022-07-10T09:24:12;37.60;40.30
45283;DHT22;31023;44.994;1.796;2022-07-10T09:32:12;38.10;42.40
45283;DHT22;31023;44.994;1.796;2022-07-10T09:37:41;38.50;40.20
45283;DHT22;31023;44.994;1.796;2022-07-10T09:40:07;37.30;42.00
45283;DHT22;31023;44.994;1.796;2022-07-10T09:47:55;39.00;41.80
45283;DHT22;31023;44.994;1.796;2022-07-10T09:50:26;37.80;42.00
45283;DHT22;31023;44.994;1.796;2022-07-10T09:52:52;38.40;43.80
45283;DHT22;31023;44.994;1.796;2022-07-10T09:55:22;38.70;40.60
45283;DHT22;31023;44.994;1.796;2022-07-10T09:57:54;38.90;40.10
45283;DHT22;31023;44.994;1.796;2022-07-10T10:00:39;38.60;41.40
45283;DHT22;31023;44.994;1.796;2022-07-10T10:03:11;37.20;41.10
45283;DHT22;31023;44.994;1.796;2022-07-10T10:05:44;37.50;42.00
45283;DHT22;31023;44.994;1.796;2022-07-10T10:08:24;37.90;40.70
45283;DHT22;31023;44.994;1.796;2022-07-10T10:10:51;38.20;41.20
45283;DHT22;31023;44.994;1.796;2022-07-10T10:13:25;38.80;40.90
45283;DHT22;31023;44.994;1.796;2022-07-10T10:15:55;37.90;42.50
45283;DHT22;31023;44.994;1.796;2022-07-10T10:18:24;38.30;40.10
45283;DHT22;31023;44.994;1.796;2022-07-10T10:20:51;38.30;40.90
45283;DHT22;31023;44.994;1.796;2022-07-10T10:23:17;37.70;40.20
45283;DHT22;31023;44.994;1.796;2022-07-10T10:25:44;38.30;40.90
45283;DHT22;31023;44.994;1.796;2022-07-10T10:28:10;38.30;41.50
45283;DHT22;31023;44.994;1.796;2022-07-10T10:30:40;39.30;41.70
45283;DHT22;31023;44.994;1.796;2022-07-10T10:35:51;39.20;41.40
45283;DHT22;31023;44.994;1.796;2022-07-10T10:38:16;38.80;39.80
45283;DHT22;31023;44.994;1.796;2022-07-10T10:40:42;37.90;39.30
45283;DHT22;31023;44.994;1.796;2022-07-10T10:43:18;38.00;39.80
45283;DHT22;31023;44.994;1.796;2022-07-10T10:45:43;36.50;42.60
45283;DHT22;31023;44.994;1.796;2022-07-10T10:48:10;34.10;43.40
45283;DHT22;31023;44.994;1.796;2022-07-10T10:53:12;31.70;45.10
45283;DHT22;31023;44.994;1.796;2022-07-10T10:55:38;32.00;46.90
45283;DHT22;31023;44.994;1.796;2022-07-10T10:58:16;31.50;46.10
45283;DHT22;31023;44.994;1.796;2022-07-10T11:00:46;31.90;46.80
45283;DHT22;31023;44.994;1.796;2022-07-10T11:03:14;32.10;48.00
45283;DHT22;31023;44.994;1.796;2022-07-10T11:05:41;31.70;46.40
45283;DHT22;31023;44.994;1.796;2022-07-10T11:08:07;31.70;48.30
45283;DHT22;31023;44.994;1.796;2022-07-10T11:10:34;32.20;46.80
45283;DHT22;31023;44.994;1.796;2022-07-10T11:13:06;31.80;47.50
45283;DHT22;31023;44.994;1.796;2022-07-10T11:15:33;31.50;47.60
45283;DHT22;31023;44.994;1.796;2022-07-10T11:20:33;31.60;47.40
45283;DHT22;31023;44.994;1.796;2022-07-10T11:25:53;31.20;49.60
45283;DHT22;31023;44.994;1.796;2022-07-10T11:28:51;31.20;48.30
45283;DHT22;31023;44.994;1.796;2022-07-10T11:31:21;30.60;47.80
45283;DHT22;31023;44.994;1.796;2022-07-10T11:33:47;30.80;47.50
45283;DHT22;31023;44.994;1.796;2022-07-10T11:38:42;30.90;49.50
45283;DHT22;31023;44.994;1.796;2022-07-10T11:41:17;30.60;48.00
45283;DHT22;31023;44.994;1.796;2022-07-10T11:43:59;30.50;49.00
45283;DHT22;31023;44.994;1.796;2022-07-10T11:46:28;30.20;48.10
45283;DHT22;31023;44.994;1.796;2022-07-10T11:48:54;30.10;48.00
45283;DHT22;31023;44.994;1.796;2022-07-10T11:53:58;29.90;48.10
45283;DHT22;31023;44.994;1.796;2022-07-10T11:56:24;29.70;48.40
45283;DHT22;31023;44.994;1.796;2022-07-10T11:59:08;30.00;48.50
45283;DHT22;31023;44.994;1.796;2022-07-10T12:01:35;30.00;49.90
45283;DHT22;31023;44.994;1.796;2022-07-10T12:04:06;30.00;47.40
45283;DHT22;31023;44.994;1.796;2022-07-10T12:06:32;30.10;50.10
45283;DHT22;31023;44.994;1.796;2022-07-10T12:09:09;30.00;51.10
45283;DHT22;31023;44.994;1.796;2022-07-10T12:11:35;29.90;48.90
45283;DHT22;31023;44.994;1.796;2022-07-10T12:14:12;29.90;47.50
45283;DHT22;31023;44.994;1.796;2022-07-10T12:16:40;29.80;52.00
45283;DHT22;31023;44.994;1.796;2022-07-10T12:19:08;29.80;48.60
45283;DHT22;31023;44.994;1.796;2022-07-10T12:21:33;29.90;51.30
45283;DHT22;31023;44.994;1.796;2022-07-10T12:23:59;29.70;49.50
45283;DHT22;31023;44.994;1.796;2022-07-10T12:26:31;29.90;49.50
45283;DHT22;31023;44.994;1.796;2022-07-10T12:28:56;29.90;50.50
45283;DHT22;31023;44.994;1.796;2022-07-10T12:31:23;29.90;49.50
45283;DHT22;31023;44.994;1.796;2022-07-10T12:33:52;29.70;49.60
45283;DHT22;31023;44.994;1.796;2022-07-10T12:36:18;29.70;48.70
45283;DHT22;31023;44.994;1.796;2022-07-10T12:38:52;29.60;48.30
45283;DHT22;31023;44.994;1.796;2022-07-10T12:41:17;29.40;48.60
45283;DHT22;31023;44.994;1.796;2022-07-10T12:43:48;29.40;48.10
45283;DHT22;31023;44.994;1.796;2022-07-10T12:46:23;29.50;48.30
45283;DHT22;31023;44.994;1.796;2022-07-10T12:49:05;29.50;47.70
45283;DHT22;31023;44.994;1.796;2022-07-10T12:51:35;29.40;47.60
45283;DHT22;31023;44.994;1.796;2022-07-10T12:54:07;29.50;49.60
45283;DHT22;31023;44.994;1.796;2022-07-10T12:56:33;29.50;48.70
45283;DHT22;31023;44.994;1.796;2022-07-10T12:59:00;29.40;49.30
45283;DHT22;31023;44.994;1.796;2022-07-10T13:01:27;29.30;48.80
45283;DHT22;31023;44.994;1.796;2022-07-10T13:03:59;29.30;50.30
45283;DHT22;31023;44.994;1.796;2022-07-10T13:06:29;29.10;49.50
45283;DHT22;31023;44.994;1.796;2022-07-10T13:08:55;29.30;49.70
45283;DHT22;31023;44.994;1.796;2022-07-10T13:11:21;29.40;49.00
45283;DHT22;31023;44.994;1.796;2022-07-10T13:13:47;29.40;49.40
45283;DHT22;31023;44.994;1.796;2022-07-10T13:16:13;29.50;49.30
45283;DHT22;31023;44.994;1.796;2022-07-10T13:18:38;29.40;48.40
45283;DHT22;31023;44.994;1.796;2022-07-10T13:21:07;29.60;53.20
45283;DHT22;31023;44.994;1.796;2022-07-10T13:23:32;29.40;49.10
45283;DHT22;31023;44.994;1.796;2022-07-10T13:25:58;29.30;49.70
45283;DHT22;31023;44.994;1.796;2022-07-10T13:28:24;29.20;48.70
45283;DHT22;31023;44.994;1.796;2022-07-10T13:30:50;29.40;50.10
45283;DHT22;31023;44.994;1.796;2022-07-10T13:33:16;29.30;49.90
45283;DHT22;31023;44.994;1.796;2022-07-10T13:35:41;29.30;49.90
45283;DHT22;31023;44.994;1.796;2022-07-10T13:38:07;29.20;49.90
45283;DHT22;31023;44.994;1.796;2022-07-10T13:40:33;29.20;49.90
45283;DHT22;31023;44.994;1.796;2022-07-10T13:42:59;29.40;50.80
45283;DHT22;31023;44.994;1.796;2022-07-10T13:45:25;29.50;53.20
45283;DHT22;31023;44.994;1.796;2022-07-10T13:47:55;29.30;48.80
45283;DHT22;31023;44.994;1.796;2022-07-10T13:50:20;29.20;50.70
45283;DHT22;31023;44.994;1.796;2022-07-10T13:52:46;29.00;48.90
45283;DHT22;31023;44.994;1.796;2022-07-10T13:55:12;29.10;49.10
45283;DHT22;31023;44.994;1.796;2022-07-10T13:57:38;29.10;49.50
45283;DHT22;31023;44.994;1.796;2022-07-10T14:00:04;29.20;49.90
45283;DHT22;31023;44.994;1.796;2022-07-10T14:02:29;29.20;50.80
45283;DHT22;31023;44.994;1.796;2022-07-10T14:04:55;29.20;51.20
45283;DHT22;31023;44.994;1.796;2022-07-10T14:07:20;29.10;50.00
45283;DHT22;31023;44.994;1.796;2022-07-10T14:09:46;29.20;51.40
45283;DHT22;31023;44.994;1.796;2022-07-10T14:12:12;29.20;50.60
45283;DHT22;31023;44.994;1.796;2022-07-10T14:14:37;29.00;49.90
45283;DHT22;31023;44.994;1.796;2022-07-10T14:17:03;29.10;49.70
45283;DHT22;31023;44.994;1.796;2022-07-10T14:19:28;29.10;48.60
45283;DHT22;31023;44.994;1.796;2022-07-10T14:21:54;29.10;50.80
45283;DHT22;31023;44.994;1.796;2022-07-10T14:24:19;29.10;50.00
45283;DHT22;31023;44.994;1.796;2022-07-10T14:26:45;29.20;51.30
45283;DHT22;31023;44.994;1.796;2022-07-10T14:29:12;29.00;50.40
45283;DHT22;31023;44.994;1.796;2022-07-10T14:31:38;29.00;49.70
45283;DHT22;31023;44.994;1.796;2022-07-10T14:34:05;29.10;50.80
45283;DHT22;31023;44.994;1.796;2022-07-10T14:36:31;28.90;49.00
45283;DHT22;31023;44.994;1.796;2022-07-10T14:38:57;29.00;50.40
45283;DHT22;31023;44.994;1.796;2022-07-10T14:41:23;29.00;49.40
45283;DHT22;31023;44.994;1.796;2022-07-10T14:43:48;29.00;50.80
45283;DHT22;31023;44.994;1.796;2022-07-10T14:46:14;28.90;50.10
45283;DHT22;31023;44.994;1.796;2022-07-10T14:48:40;29.00;50.40
45283;DHT22;31023;44.994;1.796;2022-07-10T14:51:06;29.10;49.50
45283;DHT22;31023;44.994;1.796;2022-07-10T14:53:33;29.00;50.10
45283;DHT22;31023;44.994;1.796;2022-07-10T14:56:01;29.00;49.80
45283;DHT22;31023;44.994;1.796;2022-07-10T14:58:26;29.00;50.10
45283;DHT22;31023;44.994;1.796;2022-07-10T15:00:52;28.90;50.50
45283;DHT22;31023;44.994;1.796;2022-07-10T15:03:19;28.90;50.80
45283;DHT22;31023;44.994;1.796;2022-07-10T15:05:44;28.90;51.40
45283;DHT22;31023;44.994;1.796;2022-07-10T15:08:10;28.90;49.00
45283;DHT22;31023;44.994;1.796;2022-07-10T15:10:35;28.90;50.90
45283;DHT22;31023;44.994;1.796;2022-07-10T15:13:01;28.90;49.40
45283;DHT22;31023;44.994;1.796;2022-07-10T15:15:30;28.90;49.30
45283;DHT22;31023;44.994;1.796;2022-07-10T15:17:56;28.90;49.30
45283;DHT22;31023;44.994;1.796;2022-07-10T15:20:21;28.90;51.00
45283;DHT22;31023;44.994;1.796;2022-07-10T15:22:47;29.00;53.80
45283;DHT22;31023;44.994;1.796;2022-07-10T15:25:12;28.90;51.30
45283;DHT22;31023;44.994;1.796;2022-07-10T15:27:38;28.80;53.70
45283;DHT22;31023;44.994;1.796;2022-07-10T15:30:05;28.90;53.00
45283;DHT22;31023;44.994;1.796;2022-07-10T15:32:30;28.90;52.90
45283;DHT22;31023;44.994;1.796;2022-07-10T15:34:56;28.90;52.00
45283;DHT22;31023;44.994;1.796;2022-07-10T15:37:21;28.90;53.30
45283;DHT22;31023;44.994;1.796;2022-07-10T15:39:48;28.90;53.00
45283;DHT22;31023;44.994;1.796;2022-07-10T15:42:14;28.70;52.00
45283;DHT22;31023;44.994;1.796;2022-07-10T15:44:39;28.70;53.40
45283;DHT22;31023;44.994;1.796;2022-07-10T15:47:06;28.70;53.30
45283;DHT22;31023;44.994;1.796;2022-07-10T15:49:31;28.70;52.70
45283;DHT22;31023;44.994;1.796;2022-07-10T15:51:57;28.70;52.80
45283;DHT22;31023;44.994;1.796;2022-07-10T15:54:26;28.80;51.60
45283;DHT22;31023;44.994;1.796;2022-07-10T15:56:52;28.70;52.40
45283;DHT22;31023;44.994;1.796;2022-07-10T15:59:17;28.70;52.10